ENOV/HOV METAR and TAF weather

Enter ICAO airport designator
Station Type Date Time Source
ENOV METAR 2020/02/21 14:20 UTC NOAA

ENOV 211420Z VRB09KT 9999 RA FEW015 BKN025 04/01 Q0981 RMK WIND AT 2175FT 23029G41KT


Station Type Date Time Source
ENOV Decoded METAR 2020/02/21 14:20 UTC NOAA

Orsta-Volda / Hovden, Norway (ENOV) 62-11N 006-04E 74M
Feb 21, 2020 - 09:20 AM EST / 2020.02.21 1420 UTC
Wind: Variable at 10 MPH (9 KT):0
Visibility: greater than 7 mile(s):0
Sky conditions: mostly cloudy
Weather: rain
Temperature: 39 F (4 C)
Dew Point: 33 F (1 C)
Relative Humidity: 80%
Pressure (altimeter): 28.97 in. Hg (0981 hPa)
ob: ENOV 211420Z VRB09KT 9999 RA FEW015 BKN025 04/01 Q0981 RMK WIND AT 2175FT 23029G41KT
cycle: 14

Station Type Date Time Source
ENOV TAF UTC NOAA

Error!

Example: see airport list